sensor_id;sensor_type;location;lat;lon;timestamp;P1;durP1;ratioP1;P2;durP2;ratioP2
11964;SDS011;6042;41.326;19.826;2023-02-15T00:00:43;18.80;;;14.00;;
11964;SDS011;6042;41.326;19.826;2023-02-15T00:03:12;19.97;;;13.00;;
11964;SDS011;6042;41.326;19.826;2023-02-15T00:05:43;19.27;;;12.63;;
11964;SDS011;6042;41.326;19.826;2023-02-15T00:08:11;14.07;;;12.07;;
11964;SDS011;6042;41.326;19.826;2023-02-15T00:10:40;18.53;;;12.63;;
11964;SDS011;6042;41.326;19.826;2023-02-15T00:13:10;17.60;;;13.13;;
11964;SDS011;6042;41.326;19.826;2023-02-15T00:15:38;18.93;;;13.50;;
11964;SDS011;6042;41.326;19.826;2023-02-15T00:18:07;17.13;;;12.00;;
11964;SDS011;6042;41.326;19.826;2023-02-15T00:20:35;16.30;;;10.97;;
11964;SDS011;6042;41.326;19.826;2023-02-15T00:23:04;14.80;;;11.20;;
11964;SDS011;6042;41.326;19.826;2023-02-15T00:25:32;16.37;;;11.03;;
11964;SDS011;6042;41.326;19.826;2023-02-15T00:28:01;18.00;;;10.67;;
11964;SDS011;6042;41.326;19.826;2023-02-15T00:30:30;14.20;;;10.40;;
11964;SDS011;6042;41.326;19.826;2023-02-15T00:33:00;14.87;;;10.37;;
11964;SDS011;6042;41.326;19.826;2023-02-15T00:35:28;16.00;;;10.43;;
11964;SDS011;6042;41.326;19.826;2023-02-15T00:37:57;15.27;;;11.50;;
11964;SDS011;6042;41.326;19.826;2023-02-15T00:40:25;17.23;;;10.73;;
11964;SDS011;6042;41.326;19.826;2023-02-15T00:42:53;12.27;;;10.13;;
11964;SDS011;6042;41.326;19.826;2023-02-15T00:45:22;12.63;;;9.40;;
11964;SDS011;6042;41.326;19.826;2023-02-15T00:47:52;11.17;;;9.23;;
11964;SDS011;6042;41.326;19.826;2023-02-15T00:50:20;13.73;;;9.87;;
11964;SDS011;6042;41.326;19.826;2023-02-15T00:52:49;19.27;;;9.67;;
11964;SDS011;6042;41.326;19.826;2023-02-15T00:55:18;12.60;;;8.97;;
11964;SDS011;6042;41.326;19.826;2023-02-15T00:57:48;13.53;;;8.77;;
11964;SDS011;6042;41.326;19.826;2023-02-15T01:00:16;10.03;;;8.43;;
11964;SDS011;6042;41.326;19.826;2023-02-15T01:02:46;12.13;;;8.83;;
11964;SDS011;6042;41.326;19.826;2023-02-15T01:05:16;10.40;;;8.13;;
11964;SDS011;6042;41.326;19.826;2023-02-15T01:07:45;11.73;;;8.37;;
11964;SDS011;6042;41.326;19.826;2023-02-15T01:10:14;9.37;;;8.13;;
11964;SDS011;6042;41.326;19.826;2023-02-15T01:12:42;11.63;;;8.03;;
11964;SDS011;6042;41.326;19.826;2023-02-15T01:15:11;12.83;;;7.73;;
11964;SDS011;6042;41.326;19.826;2023-02-15T01:17:40;15.10;;;8.17;;
11964;SDS011;6042;41.326;19.826;2023-02-15T01:20:09;10.23;;;7.63;;
11964;SDS011;6042;41.326;19.826;2023-02-15T01:22:40;10.73;;;8.10;;
11964;SDS011;6042;41.326;19.826;2023-02-15T01:25:09;11.20;;;8.33;;
11964;SDS011;6042;41.326;19.826;2023-02-15T01:27:37;11.73;;;8.20;;
11964;SDS011;6042;41.326;19.826;2023-02-15T01:30:06;10.60;;;7.40;;
11964;SDS011;6042;41.326;19.826;2023-02-15T01:32:36;8.67;;;7.23;;
11964;SDS011;6042;41.326;19.826;2023-02-15T01:35:04;9.83;;;7.10;;
11964;SDS011;6042;41.326;19.826;2023-02-15T01:37:34;8.80;;;7.13;;
11964;SDS011;6042;41.326;19.826;2023-02-15T01:40:05;12.07;;;7.77;;
11964;SDS011;6042;41.326;19.826;2023-02-15T01:42:36;9.67;;;7.50;;
11964;SDS011;6042;41.326;19.826;2023-02-15T01:45:05;9.77;;;7.03;;
11964;SDS011;6042;41.326;19.826;2023-02-15T01:47:48;11.57;;;7.23;;
11964;SDS011;6042;41.326;19.826;2023-02-15T01:50:23;9.13;;;6.70;;
11964;SDS011;6042;41.326;19.826;2023-02-15T01:52:58;9.33;;;7.00;;
11964;SDS011;6042;41.326;19.826;2023-02-15T01:55:33;8.97;;;6.90;;
11964;SDS011;6042;41.326;19.826;2023-02-15T01:58:06;7.90;;;6.47;;
11964;SDS011;6042;41.326;19.826;2023-02-15T02:00:35;9.20;;;6.67;;
11964;SDS011;6042;41.326;19.826;2023-02-15T02:03:04;9.67;;;6.63;;
11964;SDS011;6042;41.326;19.826;2023-02-15T02:05:33;7.70;;;6.93;;
11964;SDS011;6042;41.326;19.826;2023-02-15T02:08:02;9.30;;;7.13;;
11964;SDS011;6042;41.326;19.826;2023-02-15T02:10:33;8.03;;;6.60;;
11964;SDS011;6042;41.326;19.826;2023-02-15T02:13:02;9.43;;;7.40;;
11964;SDS011;6042;41.326;19.826;2023-02-15T02:15:38;9.90;;;7.17;;
11964;SDS011;6042;41.326;19.826;2023-02-15T02:18:17;7.50;;;6.30;;
11964;SDS011;6042;41.326;19.826;2023-02-15T02:24:00;9.13;;;6.90;;
11964;SDS011;6042;41.326;19.826;2023-02-15T02:27:05;9.50;;;7.33;;
11964;SDS011;6042;41.326;19.826;2023-02-15T02:30:04;8.83;;;7.50;;
11964;SDS011;6042;41.326;19.826;2023-02-15T02:33:17;8.90;;;7.33;;
11964;SDS011;6042;41.326;19.826;2023-02-15T02:36:02;7.80;;;6.73;;
11964;SDS011;6042;41.326;19.826;2023-02-15T02:38:42;9.83;;;6.77;;
11964;SDS011;6042;41.326;19.826;2023-02-15T02:41:20;9.00;;;6.80;;
11964;SDS011;6042;41.326;19.826;2023-02-15T02:43:59;9.57;;;7.00;;
11964;SDS011;6042;41.326;19.826;2023-02-15T02:46:37;9.37;;;6.90;;
11964;SDS011;6042;41.326;19.826;2023-02-15T02:49:13;10.13;;;7.00;;
11964;SDS011;6042;41.326;19.826;2023-02-15T02:51:43;8.67;;;7.23;;
11964;SDS011;6042;41.326;19.826;2023-02-15T02:54:11;9.87;;;6.83;;
11964;SDS011;6042;41.326;19.826;2023-02-15T02:56:41;11.13;;;7.70;;
11964;SDS011;6042;41.326;19.826;2023-02-15T02:59:16;9.83;;;7.43;;
11964;SDS011;6042;41.326;19.826;2023-02-15T03:01:49;9.07;;;6.97;;
11964;SDS011;6042;41.326;19.826;2023-02-15T03:04:24;10.97;;;7.30;;
11964;SDS011;6042;41.326;19.826;2023-02-15T03:06:57;9.27;;;7.53;;
11964;SDS011;6042;41.326;19.826;2023-02-15T03:09:31;8.63;;;7.50;;
11964;SDS011;6042;41.326;19.826;2023-02-15T03:12:11;10.10;;;7.30;;
11964;SDS011;6042;41.326;19.826;2023-02-15T03:14:46;11.63;;;7.80;;
11964;SDS011;6042;41.326;19.826;2023-02-15T03:17:19;8.87;;;7.27;;
11964;SDS011;6042;41.326;19.826;2023-02-15T03:19:53;12.80;;;7.50;;
11964;SDS011;6042;41.326;19.826;2023-02-15T03:22:26;9.90;;;7.53;;
11964;SDS011;6042;41.326;19.826;2023-02-15T03:25:01;9.60;;;7.43;;
11964;SDS011;6042;41.326;19.826;2023-02-15T03:27:35;9.60;;;7.30;;
11964;SDS011;6042;41.326;19.826;2023-02-15T03:30:07;8.43;;;7.03;;
11964;SDS011;6042;41.326;19.826;2023-02-15T03:32:38;10.17;;;7.90;;
11964;SDS011;6042;41.326;19.826;2023-02-15T03:35:10;10.50;;;7.20;;
11964;SDS011;6042;41.326;19.826;2023-02-15T03:37:40;9.73;;;8.03;;
11964;SDS011;6042;41.326;19.826;2023-02-15T03:40:14;10.00;;;6.67;;
11964;SDS011;6042;41.326;19.826;2023-02-15T03:43:07;8.63;;;6.47;;
11964;SDS011;6042;41.326;19.826;2023-02-15T03:45:44;10.70;;;7.20;;
11964;SDS011;6042;41.326;19.826;2023-02-15T03:48:24;9.00;;;6.70;;
11964;SDS011;6042;41.326;19.826;2023-02-15T03:50:57;11.83;;;7.43;;
11964;SDS011;6042;41.326;19.826;2023-02-15T03:53:46;11.13;;;7.93;;
11964;SDS011;6042;41.326;19.826;2023-02-15T03:56:16;11.37;;;7.53;;
11964;SDS011;6042;41.326;19.826;2023-02-15T03:58:44;11.10;;;7.97;;
11964;SDS011;6042;41.326;19.826;2023-02-15T04:01:33;13.47;;;7.47;;
11964;SDS011;6042;41.326;19.826;2023-02-15T04:04:25;10.03;;;8.20;;
11964;SDS011;6042;41.326;19.826;2023-02-15T04:06:58;10.93;;;8.50;;
11964;SDS011;6042;41.326;19.826;2023-02-15T04:09:27;11.33;;;7.90;;
11964;SDS011;6042;41.326;19.826;2023-02-15T04:12:14;12.40;;;8.10;;
11964;SDS011;6042;41.326;19.826;2023-02-15T04:14:43;9.00;;;6.90;;
11964;SDS011;6042;41.326;19.826;2023-02-15T04:17:30;10.27;;;7.47;;
11964;SDS011;6042;41.326;19.826;2023-02-15T04:19:58;7.70;;;6.40;;
11964;SDS011;6042;41.326;19.826;2023-02-15T04:22:46;8.03;;;7.13;;
11964;SDS011;6042;41.326;19.826;2023-02-15T04:25:31;9.17;;;6.40;;
11964;SDS011;6042;41.326;19.826;2023-02-15T04:28:00;10.83;;;6.67;;
11964;SDS011;6042;41.326;19.826;2023-02-15T04:30:30;10.30;;;7.10;;
11964;SDS011;6042;41.326;19.826;2023-02-15T04:32:58;9.63;;;8.00;;
11964;SDS011;6042;41.326;19.826;2023-02-15T04:35:27;9.80;;;7.40;;
11964;SDS011;6042;41.326;19.826;2023-02-15T04:37:57;8.57;;;7.53;;
11964;SDS011;6042;41.326;19.826;2023-02-15T04:40:25;13.57;;;8.13;;
11964;SDS011;6042;41.326;19.826;2023-02-15T04:42:54;8.73;;;6.77;;
11964;SDS011;6042;41.326;19.826;2023-02-15T04:45:22;8.50;;;6.93;;
11964;SDS011;6042;41.326;19.826;2023-02-15T04:47:51;8.97;;;6.53;;
11964;SDS011;6042;41.326;19.826;2023-02-15T04:50:19;11.30;;;6.90;;
11964;SDS011;6042;41.326;19.826;2023-02-15T04:52:48;8.13;;;6.43;;
11964;SDS011;6042;41.326;19.826;2023-02-15T04:55:18;10.97;;;7.30;;
11964;SDS011;6042;41.326;19.826;2023-02-15T04:57:47;12.20;;;7.77;;
11964;SDS011;6042;41.326;19.826;2023-02-15T05:00:15;13.90;;;7.40;;
11964;SDS011;6042;41.326;19.826;2023-02-15T05:02:44;13.37;;;7.30;;
11964;SDS011;6042;41.326;19.826;2023-02-15T05:05:13;9.00;;;7.27;;
11964;SDS011;6042;41.326;19.826;2023-02-15T05:07:41;10.10;;;7.43;;
11964;SDS011;6042;41.326;19.826;2023-02-15T05:10:10;10.83;;;7.53;;
11964;SDS011;6042;41.326;19.826;2023-02-15T05:12:40;11.87;;;7.03;;
11964;SDS011;6042;41.326;19.826;2023-02-15T05:15:09;16.70;;;8.00;;
11964;SDS011;6042;41.326;19.826;2023-02-15T05:17:37;13.67;;;7.30;;
11964;SDS011;6042;41.326;19.826;2023-02-15T05:20:06;10.50;;;6.10;;
11964;SDS011;6042;41.326;19.826;2023-02-15T05:22:35;9.87;;;5.97;;
11964;SDS011;6042;41.326;19.826;2023-02-15T05:25:04;10.70;;;6.03;;
11964;SDS011;6042;41.326;19.826;2023-02-15T05:27:54;14.80;;;5.87;;
11964;SDS011;6042;41.326;19.826;2023-02-15T05:30:40;8.37;;;6.17;;
11964;SDS011;6042;41.326;19.826;2023-02-15T05:33:09;16.60;;;8.30;;
11964;SDS011;6042;41.326;19.826;2023-02-15T05:35:38;12.70;;;6.73;;
11964;SDS011;6042;41.326;19.826;2023-02-15T05:38:07;12.97;;;6.37;;
11964;SDS011;6042;41.326;19.826;2023-02-15T05:40:35;12.30;;;6.53;;
11964;SDS011;6042;41.326;19.826;2023-02-15T05:43:05;13.17;;;6.70;;
11964;SDS011;6042;41.326;19.826;2023-02-15T05:45:35;12.03;;;6.73;;
11964;SDS011;6042;41.326;19.826;2023-02-15T05:48:03;10.83;;;6.57;;
11964;SDS011;6042;41.326;19.826;2023-02-15T05:50:32;9.03;;;6.73;;
11964;SDS011;6042;41.326;19.826;2023-02-15T05:53:01;7.97;;;6.57;;
11964;SDS011;6042;41.326;19.826;2023-02-15T05:55:29;12.17;;;9.07;;
11964;SDS011;6042;41.326;19.826;2023-02-15T05:57:58;15.03;;;8.20;;
11964;SDS011;6042;41.326;19.826;2023-02-15T06:00:28;11.80;;;6.77;;
11964;SDS011;6042;41.326;19.826;2023-02-15T06:02:56;10.07;;;6.77;;
11964;SDS011;6042;41.326;19.826;2023-02-15T06:05:25;16.40;;;7.43;;
11964;SDS011;6042;41.326;19.826;2023-02-15T06:07:54;10.27;;;6.80;;
11964;SDS011;6042;41.326;19.826;2023-02-15T06:10:22;20.13;;;8.60;;
11964;SDS011;6042;41.326;19.826;2023-02-15T06:12:51;15.90;;;7.30;;
11964;SDS011;6042;41.326;19.826;2023-02-15T06:15:19;15.27;;;8.27;;
11964;SDS011;6042;41.326;19.826;2023-02-15T06:17:49;11.70;;;6.87;;
11964;SDS011;6042;41.326;19.826;2023-02-15T06:20:18;23.70;;;7.13;;
11964;SDS011;6042;41.326;19.826;2023-02-15T06:22:46;8.90;;;6.40;;
11964;SDS011;6042;41.326;19.826;2023-02-15T06:25:16;12.60;;;7.43;;
11964;SDS011;6042;41.326;19.826;2023-02-15T06:27:45;13.37;;;7.13;;
11964;SDS011;6042;41.326;19.826;2023-02-15T06:30:13;11.57;;;6.47;;
11964;SDS011;6042;41.326;19.826;2023-02-15T06:32:42;12.83;;;6.43;;
11964;SDS011;6042;41.326;19.826;2023-02-15T06:35:13;8.97;;;7.10;;
11964;SDS011;6042;41.326;19.826;2023-02-15T06:37:42;7.07;;;5.70;;
11964;SDS011;6042;41.326;19.826;2023-02-15T06:40:13;7.80;;;5.87;;
11964;SDS011;6042;41.326;19.826;2023-02-15T06:42:42;18.00;;;6.63;;
11964;SDS011;6042;41.326;19.826;2023-02-15T06:45:11;6.00;;;5.03;;
11964;SDS011;6042;41.326;19.826;2023-02-15T06:47:39;7.07;;;5.00;;
11964;SDS011;6042;41.326;19.826;2023-02-15T06:50:08;8.37;;;5.40;;
11964;SDS011;6042;41.326;19.826;2023-02-15T06:52:39;8.70;;;4.83;;
11964;SDS011;6042;41.326;19.826;2023-02-15T06:55:07;5.83;;;5.23;;
11964;SDS011;6042;41.326;19.826;2023-02-15T06:57:36;11.50;;;6.40;;
11964;SDS011;6042;41.326;19.826;2023-02-15T07:00:05;8.00;;;6.13;;
11964;SDS011;6042;41.326;19.826;2023-02-15T07:02:34;14.53;;;6.27;;
11964;SDS011;6042;41.326;19.826;2023-02-15T07:05:03;11.57;;;6.50;;
11964;SDS011;6042;41.326;19.826;2023-02-15T07:07:31;11.50;;;6.23;;
11964;SDS011;6042;41.326;19.826;2023-02-15T07:10:01;7.40;;;5.70;;
11964;SDS011;6042;41.326;19.826;2023-02-15T07:12:30;10.13;;;6.50;;
11964;SDS011;6042;41.326;19.826;2023-02-15T07:15:13;8.60;;;6.53;;
11964;SDS011;6042;41.326;19.826;2023-02-15T07:17:43;19.37;;;7.07;;
11964;SDS011;6042;41.326;19.826;2023-02-15T07:20:12;8.77;;;5.60;;
11964;SDS011;6042;41.326;19.826;2023-02-15T07:22:42;10.93;;;5.30;;
11964;SDS011;6042;41.326;19.826;2023-02-15T07:25:12;9.10;;;5.50;;
11964;SDS011;6042;41.326;19.826;2023-02-15T07:27:41;13.07;;;6.17;;
11964;SDS011;6042;41.326;19.826;2023-02-15T07:30:10;10.03;;;5.63;;
11964;SDS011;6042;41.326;19.826;2023-02-15T07:32:40;13.10;;;6.20;;
11964;SDS011;6042;41.326;19.826;2023-02-15T07:35:24;8.43;;;5.70;;
11964;SDS011;6042;41.326;19.826;2023-02-15T07:37:53;8.80;;;6.33;;
11964;SDS011;6042;41.326;19.826;2023-02-15T07:40:23;12.83;;;6.90;;
11964;SDS011;6042;41.326;19.826;2023-02-15T07:42:52;12.73;;;6.30;;
11964;SDS011;6042;41.326;19.826;2023-02-15T07:45:21;16.73;;;6.50;;
11964;SDS011;6042;41.326;19.826;2023-02-15T07:47:49;10.27;;;6.60;;
11964;SDS011;6042;41.326;19.826;2023-02-15T07:50:18;10.60;;;6.93;;
11964;SDS011;6042;41.326;19.826;2023-02-15T07:52:46;9.87;;;6.90;;
11964;SDS011;6042;41.326;19.826;2023-02-15T07:55:15;9.63;;;7.53;;
11964;SDS011;6042;41.326;19.826;2023-02-15T07:57:45;11.97;;;7.50;;
11964;SDS011;6042;41.326;19.826;2023-02-15T08:00:15;12.40;;;7.20;;
11964;SDS011;6042;41.326;19.826;2023-02-15T08:02:47;12.43;;;7.83;;
11964;SDS011;6042;41.326;19.826;2023-02-15T08:05:36;13.93;;;8.00;;
11964;SDS011;6042;41.326;19.826;2023-02-15T08:08:05;13.10;;;7.00;;
11964;SDS011;6042;41.326;19.826;2023-02-15T08:10:34;10.77;;;7.03;;
11964;SDS011;6042;41.326;19.826;2023-02-15T08:13:22;9.80;;;7.97;;
11964;SDS011;6042;41.326;19.826;2023-02-15T08:15:51;10.10;;;8.30;;
11964;SDS011;6042;41.326;19.826;2023-02-15T08:18:19;11.67;;;8.03;;
11964;SDS011;6042;41.326;19.826;2023-02-15T08:20:48;14.57;;;8.03;;
11964;SDS011;6042;41.326;19.826;2023-02-15T08:23:17;10.50;;;8.03;;
11964;SDS011;6042;41.326;19.826;2023-02-15T08:25:46;12.07;;;8.80;;
11964;SDS011;6042;41.326;19.826;2023-02-15T08:28:14;13.67;;;8.87;;
11964;SDS011;6042;41.326;19.826;2023-02-15T08:30:44;13.43;;;9.53;;
11964;SDS011;6042;41.326;19.826;2023-02-15T08:33:12;20.13;;;9.33;;
11964;SDS011;6042;41.326;19.826;2023-02-15T08:35:40;21.97;;;11.07;;
11964;SDS011;6042;41.326;19.826;2023-02-15T08:38:09;17.00;;;9.13;;
11964;SDS011;6042;41.326;19.826;2023-02-15T08:40:37;27.83;;;11.03;;
11964;SDS011;6042;41.326;19.826;2023-02-15T08:43:05;21.43;;;10.57;;
11964;SDS011;6042;41.326;19.826;2023-02-15T08:45:34;14.57;;;9.20;;
11964;SDS011;6042;41.326;19.826;2023-02-15T08:48:05;15.17;;;9.13;;
11964;SDS011;6042;41.326;19.826;2023-02-15T08:50:33;13.93;;;9.50;;
11964;SDS011;6042;41.326;19.826;2023-02-15T08:53:01;11.73;;;9.17;;
11964;SDS011;6042;41.326;19.826;2023-02-15T08:55:30;13.17;;;8.70;;
11964;SDS011;6042;41.326;19.826;2023-02-15T08:57:58;12.17;;;8.80;;
11964;SDS011;6042;41.326;19.826;2023-02-15T09:00:27;13.80;;;8.60;;
11964;SDS011;6042;41.326;19.826;2023-02-15T09:02:55;12.50;;;8.97;;
11964;SDS011;6042;41.326;19.826;2023-02-15T09:05:25;13.87;;;8.57;;
11964;SDS011;6042;41.326;19.826;2023-02-15T09:07:53;13.20;;;9.40;;
11964;SDS011;6042;41.326;19.826;2023-02-15T09:10:22;15.50;;;8.83;;
11964;SDS011;6042;41.326;19.826;2023-02-15T09:12:50;11.77;;;8.27;;
11964;SDS011;6042;41.326;19.826;2023-02-15T09:15:19;10.57;;;8.13;;
11964;SDS011;6042;41.326;19.826;2023-02-15T09:17:48;13.57;;;9.03;;
11964;SDS011;6042;41.326;19.826;2023-02-15T09:20:16;15.47;;;9.33;;
11964;SDS011;6042;41.326;19.826;2023-02-15T09:22:46;11.10;;;9.20;;
11964;SDS011;6042;41.326;19.826;2023-02-15T09:25:15;13.93;;;9.30;;
11964;SDS011;6042;41.326;19.826;2023-02-15T09:27:43;20.13;;;10.43;;
11964;SDS011;6042;41.326;19.826;2023-02-15T09:30:12;21.27;;;10.40;;
11964;SDS011;6042;41.326;19.826;2023-02-15T09:32:41;18.87;;;11.67;;
11964;SDS011;6042;41.326;19.826;2023-02-15T09:35:09;22.40;;;15.20;;
11964;SDS011;6042;41.326;19.826;2023-02-15T09:37:38;20.43;;;12.70;;
11964;SDS011;6042;41.326;19.826;2023-02-15T09:40:08;20.90;;;13.60;;
11964;SDS011;6042;41.326;19.826;2023-02-15T09:42:45;26.73;;;14.47;;
11964;SDS011;6042;41.326;19.826;2023-02-15T09:45:31;21.63;;;14.10;;
11964;SDS011;6042;41.326;19.826;2023-02-15T09:51:15;22.10;;;13.43;;
11964;SDS011;6042;41.326;19.826;2023-02-15T09:54:08;24.63;;;14.13;;
11964;SDS011;6042;41.326;19.826;2023-02-15T09:56:51;15.70;;;10.87;;
11964;SDS011;6042;41.326;19.826;2023-02-15T09:59:27;18.77;;;11.60;;
11964;SDS011;6042;41.326;19.826;2023-02-15T10:02:07;19.73;;;10.60;;
11964;SDS011;6042;41.326;19.826;2023-02-15T10:04:54;22.37;;;11.60;;
11964;SDS011;6042;41.326;19.826;2023-02-15T10:07:40;12.07;;;8.07;;
11964;SDS011;6042;41.326;19.826;2023-02-15T10:10:23;20.73;;;7.83;;
11964;SDS011;6042;41.326;19.826;2023-02-15T10:13:06;11.00;;;8.63;;
11964;SDS011;6042;41.326;19.826;2023-02-15T10:15:50;13.33;;;9.20;;
11964;SDS011;6042;41.326;19.826;2023-02-15T10:18:35;15.20;;;9.30;;
11964;SDS011;6042;41.326;19.826;2023-02-15T10:21:13;16.80;;;9.83;;
11964;SDS011;6042;41.326;19.826;2023-02-15T10:24:01;19.70;;;10.07;;
11964;SDS011;6042;41.326;19.826;2023-02-15T10:26:41;13.70;;;9.90;;
11964;SDS011;6042;41.326;19.826;2023-02-15T10:29:15;14.33;;;11.33;;
11964;SDS011;6042;41.326;19.826;2023-02-15T10:31:57;18.73;;;12.43;;
11964;SDS011;6042;41.326;19.826;2023-02-15T10:34:34;21.47;;;11.70;;
11964;SDS011;6042;41.326;19.826;2023-02-15T10:37:19;16.63;;;10.20;;
11964;SDS011;6042;41.326;19.826;2023-02-15T10:40:09;12.80;;;9.50;;
11964;SDS011;6042;41.326;19.826;2023-02-15T10:42:47;13.90;;;8.53;;
11964;SDS011;6042;41.326;19.826;2023-02-15T10:45:28;27.90;;;10.60;;
11964;SDS011;6042;41.326;19.826;2023-02-15T10:48:06;19.20;;;10.17;;
11964;SDS011;6042;41.326;19.826;2023-02-15T10:50:46;18.00;;;9.80;;
11964;SDS011;6042;41.326;19.826;2023-02-15T10:53:34;12.00;;;8.40;;
11964;SDS011;6042;41.326;19.826;2023-02-15T10:56:12;13.97;;;9.27;;
11964;SDS011;6042;41.326;19.826;2023-02-15T10:58:50;14.73;;;9.90;;
11964;SDS011;6042;41.326;19.826;2023-02-15T11:01:35;14.40;;;9.20;;
11964;SDS011;6042;41.326;19.826;2023-02-15T11:04:20;13.17;;;10.60;;
11964;SDS011;6042;41.326;19.826;2023-02-15T11:07:08;15.27;;;10.07;;
11964;SDS011;6042;41.326;19.826;2023-02-15T11:09:44;12.30;;;10.03;;
11964;SDS011;6042;41.326;19.826;2023-02-15T11:12:17;17.27;;;10.23;;
11964;SDS011;6042;41.326;19.826;2023-02-15T11:14:50;18.13;;;10.30;;
11964;SDS011;6042;41.326;19.826;2023-02-15T11:17:24;11.70;;;9.27;;
11964;SDS011;6042;41.326;19.826;2023-02-15T11:19:57;13.67;;;9.80;;
11964;SDS011;6042;41.326;19.826;2023-02-15T11:22:33;19.83;;;10.93;;
11964;SDS011;6042;41.326;19.826;2023-02-15T11:25:04;18.33;;;10.87;;
11964;SDS011;6042;41.326;19.826;2023-02-15T11:27:45;21.53;;;11.73;;
11964;SDS011;6042;41.326;19.826;2023-02-15T11:30:15;15.87;;;11.53;;
11964;SDS011;6042;41.326;19.826;2023-02-15T11:32:49;20.00;;;12.33;;
11964;SDS011;6042;41.326;19.826;2023-02-15T11:35:23;15.43;;;10.83;;
11964;SDS011;6042;41.326;19.826;2023-02-15T11:37:58;18.83;;;11.00;;
11964;SDS011;6042;41.326;19.826;2023-02-15T11:40:34;17.87;;;11.83;;
11964;SDS011;6042;41.326;19.826;2023-02-15T11:43:11;17.43;;;11.67;;
11964;SDS011;6042;41.326;19.826;2023-02-15T11:45:44;13.50;;;10.50;;
11964;SDS011;6042;41.326;19.826;2023-02-15T11:48:14;18.00;;;12.20;;
11964;SDS011;6042;41.326;19.826;2023-02-15T11:50:44;13.53;;;10.20;;
11964;SDS011;6042;41.326;19.826;2023-02-15T11:53:13;14.30;;;10.73;;
11964;SDS011;6042;41.326;19.826;2023-02-15T11:55:45;18.67;;;11.30;;
11964;SDS011;6042;41.326;19.826;2023-02-15T11:58:21;21.87;;;11.87;;
11964;SDS011;6042;41.326;19.826;2023-02-15T12:00:56;16.73;;;10.83;;
11964;SDS011;6042;41.326;19.826;2023-02-15T12:03:33;14.27;;;10.63;;
11964;SDS011;6042;41.326;19.826;2023-02-15T12:06:14;15.00;;;10.63;;
11964;SDS011;6042;41.326;19.826;2023-02-15T12:08:48;18.20;;;11.17;;
11964;SDS011;6042;41.326;19.826;2023-02-15T12:11:22;14.03;;;11.40;;
11964;SDS011;6042;41.326;19.826;2023-02-15T12:13:58;16.10;;;11.83;;
11964;SDS011;6042;41.326;19.826;2023-02-15T12:16:28;13.97;;;10.47;;
11964;SDS011;6042;41.326;19.826;2023-02-15T12:19:01;15.67;;;11.13;;
11964;SDS011;6042;41.326;19.826;2023-02-15T12:21:31;15.90;;;11.07;;
11964;SDS011;6042;41.326;19.826;2023-02-15T12:24:09;15.83;;;11.27;;
11964;SDS011;6042;41.326;19.826;2023-02-15T12:26:48;15.90;;;11.13;;
11964;SDS011;6042;41.326;19.826;2023-02-15T12:29:25;15.47;;;10.77;;
11964;SDS011;6042;41.326;19.826;2023-02-15T12:31:56;16.80;;;11.90;;
11964;SDS011;6042;41.326;19.826;2023-02-15T12:34:29;14.57;;;11.50;;
11964;SDS011;6042;41.326;19.826;2023-02-15T12:37:00;15.37;;;11.93;;
11964;SDS011;6042;41.326;19.826;2023-02-15T12:39:35;26.80;;;12.57;;
11964;SDS011;6042;41.326;19.826;2023-02-15T12:42:05;15.67;;;11.60;;
11964;SDS011;6042;41.326;19.826;2023-02-15T12:44:53;13.30;;;11.67;;
11964;SDS011;6042;41.326;19.826;2023-02-15T12:47:23;23.57;;;12.17;;
11964;SDS011;6042;41.326;19.826;2023-02-15T12:52:45;21.37;;;12.60;;
11964;SDS011;6042;41.326;19.826;2023-02-15T12:55:19;15.90;;;12.17;;
11964;SDS011;6042;41.326;19.826;2023-02-15T12:58:04;15.77;;;12.70;;
11964;SDS011;6042;41.326;19.826;2023-02-15T13:00:37;23.83;;;14.53;;
11964;SDS011;6042;41.326;19.826;2023-02-15T13:03:14;20.67;;;14.23;;
11964;SDS011;6042;41.326;19.826;2023-02-15T13:05:46;19.23;;;13.00;;
11964;SDS011;6042;41.326;19.826;2023-02-15T13:08:18;26.27;;;13.90;;
11964;SDS011;6042;41.326;19.826;2023-02-15T13:10:52;19.13;;;12.27;;
11964;SDS011;6042;41.326;19.826;2023-02-15T13:13:24;18.00;;;13.07;;
11964;SDS011;6042;41.326;19.826;2023-02-15T13:15:56;14.60;;;12.63;;
11964;SDS011;6042;41.326;19.826;2023-02-15T13:18:29;14.30;;;11.73;;
11964;SDS011;6042;41.326;19.826;2023-02-15T13:21:04;20.83;;;12.30;;
11964;SDS011;6042;41.326;19.826;2023-02-15T13:23:38;14.03;;;11.47;;
11964;SDS011;6042;41.326;19.826;2023-02-15T13:26:13;18.27;;;12.80;;
11964;SDS011;6042;41.326;19.826;2023-02-15T13:28:45;14.63;;;11.17;;
11964;SDS011;6042;41.326;19.826;2023-02-15T13:31:17;22.80;;;12.63;;
11964;SDS011;6042;41.326;19.826;2023-02-15T13:33:49;20.37;;;12.20;;
11964;SDS011;6042;41.326;19.826;2023-02-15T13:36:23;15.03;;;12.00;;
11964;SDS011;6042;41.326;19.826;2023-02-15T13:39:00;15.43;;;11.03;;
11964;SDS011;6042;41.326;19.826;2023-02-15T13:41:44;16.57;;;11.23;;
11964;SDS011;6042;41.326;19.826;2023-02-15T13:44:21;15.37;;;10.67;;
11964;SDS011;6042;41.326;19.826;2023-02-15T13:47:02;15.43;;;11.00;;
11964;SDS011;6042;41.326;19.826;2023-02-15T13:49:45;14.03;;;10.63;;
11964;SDS011;6042;41.326;19.826;2023-02-15T13:52:22;17.47;;;10.13;;
11964;SDS011;6042;41.326;19.826;2023-02-15T13:54:59;17.10;;;10.93;;
11964;SDS011;6042;41.326;19.826;2023-02-15T13:58:12;13.57;;;10.53;;
11964;SDS011;6042;41.326;19.826;2023-02-15T14:00:55;14.43;;;9.97;;
11964;SDS011;6042;41.326;19.826;2023-02-15T14:09:43;18.43;;;10.17;;
11964;SDS011;6042;41.326;19.826;2023-02-15T14:12:23;19.00;;;10.77;;
11964;SDS011;6042;41.326;19.826;2023-02-15T14:15:03;13.50;;;9.63;;
11964;SDS011;6042;41.326;19.826;2023-02-15T14:17:45;17.63;;;9.97;;
11964;SDS011;6042;41.326;19.826;2023-02-15T14:20:23;20.07;;;10.87;;
11964;SDS011;6042;41.326;19.826;2023-02-15T14:23:07;14.13;;;10.33;;
11964;SDS011;6042;41.326;19.826;2023-02-15T14:25:46;14.47;;;10.23;;
11964;SDS011;6042;41.326;19.826;2023-02-15T14:28:19;14.77;;;10.40;;
11964;SDS011;6042;41.326;19.826;2023-02-15T14:30:57;18.77;;;9.77;;
11964;SDS011;6042;41.326;19.826;2023-02-15T14:33:31;17.00;;;9.87;;
11964;SDS011;6042;41.326;19.826;2023-02-15T14:36:03;13.70;;;9.97;;
11964;SDS011;6042;41.326;19.826;2023-02-15T14:41:36;16.07;;;10.40;;
11964;SDS011;6042;41.326;19.826;2023-02-15T14:44:12;12.57;;;9.57;;
11964;SDS011;6042;41.326;19.826;2023-02-15T14:46:50;23.47;;;10.63;;
11964;SDS011;6042;41.326;19.826;2023-02-15T14:49:25;9.50;;;8.43;;
11964;SDS011;6042;41.326;19.826;2023-02-15T14:51:56;15.77;;;10.07;;
11964;SDS011;6042;41.326;19.826;2023-02-15T14:57:23;16.43;;;10.40;;
11964;SDS011;6042;41.326;19.826;2023-02-15T14:59:54;11.40;;;8.50;;
11964;SDS011;6042;41.326;19.826;2023-02-15T15:02:25;11.47;;;8.23;;
11964;SDS011;6042;41.326;19.826;2023-02-15T15:04:58;11.60;;;8.97;;
11964;SDS011;6042;41.326;19.826;2023-02-15T15:07:38;13.80;;;9.00;;
11964;SDS011;6042;41.326;19.826;2023-02-15T15:16:24;12.97;;;7.57;;
11964;SDS011;6042;41.326;19.826;2023-02-15T15:18:57;12.27;;;8.30;;
11964;SDS011;6042;41.326;19.826;2023-02-15T15:27:38;16.87;;;8.67;;
11964;SDS011;6042;41.326;19.826;2023-02-15T15:42:47;14.30;;;9.67;;
11964;SDS011;6042;41.326;19.826;2023-02-15T15:51:04;17.93;;;10.63;;
11964;SDS011;6042;41.326;19.826;2023-02-15T15:53:38;12.97;;;10.03;;
11964;SDS011;6042;41.326;19.826;2023-02-15T15:56:12;15.37;;;10.07;;
11964;SDS011;6042;41.326;19.826;2023-02-15T15:58:44;18.90;;;10.13;;
11964;SDS011;6042;41.326;19.826;2023-02-15T16:01:21;15.97;;;9.90;;